Time;durP1;ratioP1;P1;durP2;ratioP2;P2;SDS_P1;SDS_P2;PMS_P1;PMS_P2;Temp;Humidity;BMP_temperature;BMP_pressure;BME280_temperature;BME280_humidity;BME280_pressure;Samples;Min_cycle;Max_cycle;Signal;HPM_P1;HPM_P2
2022/05/14 00:00:25;;;;;;;3.50;1.10;;;;;;;;;;5032063;28;20053;-65
2022/05/14 00:02:55;;;;;;;8.05;1.23;;;;;;;;;;5019583;28;20053;-64
2022/05/14 00:05:23;;;;;;;2.42;1.02;;;;;;;;;;5038352;28;20075;-64
2022/05/14 00:07:50;;;;;;;3.83;0.95;;;;;;;;;;5024677;28;20049;-64
2022/05/14 00:10:19;;;;;;;3.60;1.02;;;;;;;;;;5064393;28;20088;-65
2022/05/14 00:15:30;;;;;;;3.63;1.15;;;;;;;;;;5047155;28;20049;-64
2022/05/14 00:17:56;;;;;;;4.07;1.20;;;;;;;;;;5041004;28;20048;-64
2022/05/14 00:20:24;;;;;;;5.00;1.40;;;;;;;;;;5040495;28;20060;-64
2022/05/14 00:22:50;;;;;;;3.78;1.20;;;;;;;;;;5036216;28;20045;-63
2022/05/14 00:25:17;;;;;;;3.10;1.10;;;;;;;;;;5031715;28;20061;-67
2022/05/14 00:27:45;;;;;;;4.72;1.33;;;;;;;;;;5024829;28;20060;-64
2022/05/14 00:30:13;;;;;;;3.13;1.27;;;;;;;;;;5030733;28;20049;-66
2022/05/14 00:32:40;;;;;;;9.73;1.75;;;;;;;;;;5025761;28;20055;-68
2022/05/14 00:35:10;;;;;;;7.05;1.23;;;;;;;;;;5030760;28;20049;-67
2022/05/14 00:37:37;;;;;;;3.65;1.10;;;;;;;;;;5026368;28;20144;-66
2022/05/14 00:40:06;;;;;;;6.10;1.67;;;;;;;;;;5031811;28;20067;-65
2022/05/14 00:42:32;;;;;;;3.67;1.40;;;;;;;;;;5031713;28;20045;-66
2022/05/14 00:45:00;;;;;;;5.68;1.65;;;;;;;;;;5024496;28;20045;-67
2022/05/14 00:47:30;;;;;;;3.38;1.20;;;;;;;;;;5007752;28;20081;-66
2022/05/14 00:49:57;;;;;;;2.25;1.00;;;;;;;;;;5020532;28;20137;-68
2022/05/14 00:52:24;;;;;;;4.28;1.30;;;;;;;;;;5011780;28;20049;-65
2022/05/14 00:54:54;;;;;;;7.38;1.40;;;;;;;;;;5003119;28;20071;-65
2022/05/14 00:57:21;;;;;;;9.85;1.40;;;;;;;;;;5008443;28;20054;-68
2022/05/14 00:59:49;;;;;;;11.95;1.50;;;;;;;;;;5005871;28;20057;-68
2022/05/14 01:02:17;;;;;;;4.72;1.40;;;;;;;;;;5013151;28;20057;-68
2022/05/14 01:04:45;;;;;;;3.78;1.25;;;;;;;;;;5016400;28;20061;-64
2022/05/14 01:07:13;;;;;;;5.75;1.30;;;;;;;;;;5047453;28;20063;-67
2022/05/14 01:09:41;;;;;;;5.60;1.55;;;;;;;;;;5003365;28;20064;-67
2022/05/14 01:12:08;;;;;;;4.97;1.25;;;;;;;;;;5006751;28;20037;-69
2022/05/14 01:14:35;;;;;;;9.15;1.70;;;;;;;;;;5004470;28;20057;-69
2022/05/14 01:17:02;;;;;;;6.07;1.40;;;;;;;;;;5009616;28;20176;-68
2022/05/14 01:19:30;;;;;;;4.63;1.23;;;;;;;;;;5004074;28;20084;-66
2022/05/14 01:22:04;;;;;;;3.85;1.10;;;;;;;;;;5010199;28;20045;-64
2022/05/14 01:27:19;;;;;;;7.05;1.50;;;;;;;;;;5010087;28;20049;-67
2022/05/14 01:29:47;;;;;;;5.15;1.13;;;;;;;;;;5004981;28;20957;-64
2022/05/14 01:32:14;;;;;;;2.78;1.10;;;;;;;;;;5027319;28;20080;-63
2022/05/14 01:34:40;;;;;;;7.40;1.55;;;;;;;;;;5006239;28;20049;-67
2022/05/14 01:37:09;;;;;;;5.35;1.50;;;;;;;;;;5006769;28;20050;-65
2022/05/14 01:39:37;;;;;;;;;;;;;;;;;;5010126;28;20045;-63
2022/05/14 01:42:04;;;;;;;4.07;1.17;;;;;;;;;;5019644;28;19930;-63
2022/05/14 01:44:32;;;;;;;1.48;0.93;;;;;;;;;;5009874;28;20049;-69
2022/05/14 01:46:58;;;;;;;5.55;1.13;;;;;;;;;;5022182;28;20045;-64
2022/05/14 01:49:27;;;;;;;3.22;1.00;;;;;;;;;;5029885;28;20053;-64
2022/05/14 01:51:54;;;;;;;3.90;0.90;;;;;;;;;;5039032;28;20130;-67
2022/05/14 01:54:21;;;;;;;3.80;1.10;;;;;;;;;;5067643;28;20059;-66
2022/05/14 01:56:48;;;;;;;3.58;1.10;;;;;;;;;;5050872;28;20049;-64
2022/05/14 01:59:15;;;;;;;3.55;1.00;;;;;;;;;;5030981;28;20060;-64
2022/05/14 02:01:43;;;;;;;4.88;1.30;;;;;;;;;;5050575;28;20044;-66
2022/05/14 02:04:11;;;;;;;4.65;1.83;;;;;;;;;;5050966;28;20053;-67
2022/05/14 02:06:39;;;;;;;5.45;1.15;;;;;;;;;;5032085;28;20048;-65
2022/05/14 02:09:08;;;;;;;3.65;1.10;;;;;;;;;;5034043;28;20056;-65
2022/05/14 02:11:34;;;;;;;4.47;1.30;;;;;;;;;;5032100;28;20053;-65
2022/05/14 02:14:01;;;;;;;6.50;1.27;;;;;;;;;;5070652;28;20059;-64
2022/05/14 02:16:28;;;;;;;3.47;1.00;;;;;;;;;;5045385;28;20053;-68
2022/05/14 02:18:56;;;;;;;4.05;1.05;;;;;;;;;;5032874;28;20130;-64
2022/05/14 02:21:24;;;;;;;4.13;1.30;;;;;;;;;;5034140;28;20065;-63
2022/05/14 02:23:51;;;;;;;3.67;1.23;;;;;;;;;;5037710;28;20114;-64
2022/05/14 02:26:19;;;;;;;4.13;1.70;;;;;;;;;;5033038;28;20107;-63
2022/05/14 02:28:46;;;;;;;3.92;1.10;;;;;;;;;;5044043;28;20076;-64
2022/05/14 02:31:12;;;;;;;3.88;1.20;;;;;;;;;;5053624;28;20053;-66
2022/05/14 02:33:39;;;;;;;6.25;1.45;;;;;;;;;;5032125;28;20045;-64
2022/05/14 02:36:08;;;;;;;4.40;1.20;;;;;;;;;;5034212;28;20080;-66
2022/05/14 02:38:36;;;;;;;4.30;1.10;;;;;;;;;;5058799;28;20076;-65
2022/05/14 02:41:03;;;;;;;2.38;1.00;;;;;;;;;;5071152;28;20077;-64
2022/05/14 02:43:30;;;;;;;3.47;1.05;;;;;;;;;;5035596;28;20100;-64
2022/05/14 02:45:56;;;;;;;3.38;1.23;;;;;;;;;;5033076;28;20053;-64
2022/05/14 02:48:24;;;;;;;5.80;1.40;;;;;;;;;;5051858;28;20048;-63
2022/05/14 02:50:50;;;;;;;2.97;1.15;;;;;;;;;;5066648;28;20082;-65
2022/05/14 02:53:19;;;;;;;5.40;1.58;;;;;;;;;;5037996;28;20056;-65
2022/05/14 02:55:46;;;;;;;3.88;1.38;;;;;;;;;;5032646;28;20057;-64
2022/05/14 02:59:06;;;;;;;2.28;1.13;;;;;;;;;;5028743;28;20076;-62
2022/05/14 03:01:01;;;;;;;6.18;1.65;;;;;;;;;;5050897;28;20449;-65
2022/05/14 03:03:28;;;;;;;4.97;1.42;;;;;;;;;;5063150;28;20876;-64
2022/05/14 03:05:54;;;;;;;5.15;1.30;;;;;;;;;;5053588;28;20059;-63
2022/05/14 03:08:24;;;;;;;6.70;1.90;;;;;;;;;;5045618;28;20044;-64
2022/05/14 03:10:51;;;;;;;5.28;1.40;;;;;;;;;;5069805;28;20059;-64
2022/05/14 03:13:18;;;;;;;3.58;1.27;;;;;;;;;;5052734;28;20159;-65
2022/05/14 03:15:44;;;;;;;3.35;1.15;;;;;;;;;;5045010;28;20052;-65
2022/05/14 03:18:11;;;;;;;6.63;1.27;;;;;;;;;;5051010;28;20087;-64
2022/05/14 03:20:38;;;;;;;2.50;0.90;;;;;;;;;;5029455;28;20113;-64
2022/05/14 03:23:05;;;;;;;3.53;1.35;;;;;;;;;;5030469;28;20044;-66
2022/05/14 03:25:33;;;;;;;8.88;1.90;;;;;;;;;;5027915;28;20048;-64
2022/05/14 03:28:01;;;;;;;6.13;1.50;;;;;;;;;;5031749;28;20060;-63
2022/05/14 03:30:28;;;;;;;4.30;1.20;;;;;;;;;;5024693;28;20144;-67
2022/05/14 03:32:54;;;;;;;3.67;1.23;;;;;;;;;;5031847;28;20052;-63
2022/05/14 03:35:21;;;;;;;2.42;1.08;;;;;;;;;;5033937;28;20060;-65
2022/05/14 03:37:48;;;;;;;9.45;1.60;;;;;;;;;;5068290;28;20110;-64
2022/05/14 03:40:14;;;;;;;6.95;1.95;;;;;;;;;;5045467;28;20048;-63
2022/05/14 03:42:43;;;;;;;7.55;1.63;;;;;;;;;;5055275;28;20048;-65
2022/05/14 03:45:10;;;;;;;5.45;1.83;;;;;;;;;;5042058;28;20087;-63
2022/05/14 03:47:37;;;;;;;4.72;1.33;;;;;;;;;;5031166;28;20057;-66
2022/05/14 03:50:06;;;;;;;6.00;1.60;;;;;;;;;;5025470;28;20068;-63
2022/05/14 03:52:32;;;;;;;;;;;;;;;;;;5076678;28;20090;-64
2022/05/14 03:54:59;;;;;;;2.42;1.10;;;;;;;;;;5051008;28;19932;-63
2022/05/14 03:57:26;;;;;;;11.55;2.15;;;;;;;;;;5029446;28;20061;-64
2022/05/14 03:59:54;;;;;;;4.97;1.73;;;;;;;;;;5030827;28;20049;-64
2022/05/14 04:02:21;;;;;;;3.28;1.38;;;;;;;;;;5024942;28;20053;-63
2022/05/14 04:04:48;;;;;;;1.83;1.00;;;;;;;;;;5053120;28;20053;-65
2022/05/14 04:07:15;;;;;;;5.22;1.67;;;;;;;;;;5044830;28;20048;-64
2022/05/14 04:09:42;;;;;;;4.57;1.42;;;;;;;;;;5068365;28;20087;-63
2022/05/14 04:12:09;;;;;;;7.28;1.98;;;;;;;;;;5031415;28;20060;-65
2022/05/14 04:14:36;;;;;;;6.05;1.85;;;;;;;;;;5050134;28;20052;-67
2022/05/14 04:17:04;;;;;;;5.10;1.63;;;;;;;;;;5023917;28;20076;-67
2022/05/14 04:19:31;;;;;;;;;;;;;;;;;;5030765;28;20054;-64
2022/05/14 04:21:58;;;;;;;11.57;2.15;;;;;;;;;;5045702;28;19924;-64
2022/05/14 04:24:24;;;;;;;5.82;1.42;;;;;;;;;;5032109;28;20143;-63
2022/05/14 04:26:51;;;;;;;3.85;1.30;;;;;;;;;;5029422;28;20059;-63
2022/05/14 04:29:17;;;;;;;4.30;1.35;;;;;;;;;;5050214;28;20052;-65
2022/05/14 04:31:44;;;;;;;4.28;1.50;;;;;;;;;;5043498;28;20058;-63
2022/05/14 04:34:13;;;;;;;8.65;1.60;;;;;;;;;;5030792;28;20049;-63
2022/05/14 04:36:40;;;;;;;5.88;1.17;;;;;;;;;;5029019;28;20053;-68
2022/05/14 04:39:07;;;;;;;7.63;1.67;;;;;;;;;;5037670;28;20058;-66
2022/05/14 04:41:33;;;;;;;6.50;1.98;;;;;;;;;;5030308;28;20048;-67
2022/05/14 04:44:00;;;;;;;4.18;1.60;;;;;;;;;;5041371;28;20044;-64
2022/05/14 04:46:27;;;;;;;6.18;1.70;;;;;;;;;;5050780;28;20161;-66
2022/05/14 04:48:55;;;;;;;8.68;1.77;;;;;;;;;;5028716;28;20049;-65
2022/05/14 04:51:23;;;;;;;6.80;1.80;;;;;;;;;;5030111;28;20138;-64
2022/05/14 04:53:50;;;;;;;8.38;2.28;;;;;;;;;;5019427;28;20057;-66
2022/05/14 04:56:16;;;;;;;7.13;1.75;;;;;;;;;;5026826;28;20057;-66
2022/05/14 04:58:43;;;;;;;8.80;1.92;;;;;;;;;;5033057;28;20045;-65
2022/05/14 05:01:10;;;;;;;6.72;1.63;;;;;;;;;;5050037;28;20052;-67
2022/05/14 05:03:36;;;;;;;9.80;2.40;;;;;;;;;;5053127;28;20063;-64
2022/05/14 05:06:02;;;;;;;9.45;2.45;;;;;;;;;;5029633;28;20071;-65
2022/05/14 05:08:32;;;;;;;4.88;1.60;;;;;;;;;;5041023;28;20045;-63
2022/05/14 05:10:59;;;;;;;3.85;1.58;;;;;;;;;;5030242;28;20059;-63
2022/05/14 05:13:26;;;;;;;4.70;1.60;;;;;;;;;;5042027;28;20087;-64
2022/05/14 05:15:53;;;;;;;3.58;1.75;;;;;;;;;;5030888;28;20041;-64
2022/05/14 05:18:22;;;;;;;5.03;1.85;;;;;;;;;;5025282;28;20049;-66
2022/05/14 05:20:49;;;;;;;12.77;3.00;;;;;;;;;;5049717;28;20416;-63
2022/05/14 05:23:17;;;;;;;11.30;3.00;;;;;;;;;;5042297;28;20045;-64
2022/05/14 05:25:46;;;;;;;3.88;1.67;;;;;;;;;;5007976;28;20145;-68
2022/05/14 05:28:13;;;;;;;5.80;1.65;;;;;;;;;;5012834;28;20095;-67
2022/05/14 05:30:40;;;;;;;10.32;2.85;;;;;;;;;;5015741;28;20058;-67
2022/05/14 05:33:10;;;;;;;9.32;3.47;;;;;;;;;;5027044;28;20061;-67
2022/05/14 05:35:37;;;;;;;6.47;2.03;;;;;;;;;;5024249;28;20037;-66
2022/05/14 05:38:05;;;;;;;17.75;3.80;;;;;;;;;;5030413;28;20106;-67
2022/05/14 05:40:33;;;;;;;13.88;3.38;;;;;;;;;;5026447;28;20043;-67
2022/05/14 05:43:01;;;;;;;8.32;2.78;;;;;;;;;;5050117;28;20159;-67
2022/05/14 05:45:29;;;;;;;17.33;3.78;;;;;;;;;;5048255;28;20178;-64
2022/05/14 05:47:58;;;;;;;11.15;3.40;;;;;;;;;;5054857;28;20052;-65
2022/05/14 05:50:25;;;;;;;3.10;1.55;;;;;;;;;;5049063;28;20060;-65
2022/05/14 05:52:53;;;;;;;13.10;2.88;;;;;;;;;;5055438;28;20056;-67
2022/05/14 05:58:06;;;;;;;10.68;2.83;;;;;;;;;;5034753;28;20053;-64
2022/05/14 06:00:33;;;;;;;5.00;1.58;;;;;;;;;;5027339;28;20061;-62
2022/05/14 06:03:00;;;;;;;10.38;3.22;;;;;;;;;;5033258;28;20067;-64
2022/05/14 06:05:27;;;;;;;16.58;4.80;;;;;;;;;;5035455;28;20057;-66
2022/05/14 06:07:54;;;;;;;12.45;4.10;;;;;;;;;;5033053;28;20073;-64
2022/05/14 06:10:22;;;;;;;14.93;3.85;;;;;;;;;;5045106;28;20053;-63
2022/05/14 06:12:49;;;;;;;14.48;3.83;;;;;;;;;;5031645;28;20052;-64
2022/05/14 06:15:19;;;;;;;18.80;4.22;;;;;;;;;;5033076;28;20044;-65
2022/05/14 06:17:46;;;;;;;16.45;4.93;;;;;;;;;;5024619;28;20069;-63
2022/05/14 06:20:14;;;;;;;15.02;4.28;;;;;;;;;;5032166;28;20041;-63
2022/05/14 06:22:41;;;;;;;18.10;5.18;;;;;;;;;;5033598;28;20311;-64
2022/05/14 06:25:11;;;;;;;12.05;3.88;;;;;;;;;;5050497;28;20057;-64
2022/05/14 06:27:38;;;;;;;11.10;4.55;;;;;;;;;;5021377;28;20128;-64
2022/05/14 06:30:06;;;;;;;13.15;4.95;;;;;;;;;;5033396;28;20065;-65
2022/05/14 06:32:34;;;;;;;16.42;5.25;;;;;;;;;;5039603;28;20053;-63
2022/05/14 06:35:00;;;;;;;9.10;3.17;;;;;;;;;;5052310;28;20056;-66
2022/05/14 06:37:27;;;;;;;14.95;4.53;;;;;;;;;;5047135;28;20064;-64
2022/05/14 06:39:54;;;;;;;9.60;3.38;;;;;;;;;;5036469;28;20082;-65
2022/05/14 06:42:21;;;;;;;80.68;33.63;;;;;;;;;;5033856;28;20041;-63
2022/05/14 06:44:47;;;;;;;31.48;13.75;;;;;;;;;;5028639;28;20053;-63
2022/05/14 06:47:14;;;;;;;14.52;6.18;;;;;;;;;;5027896;28;20049;-63
2022/05/14 06:49:42;;;;;;;17.65;5.72;;;;;;;;;;5032412;28;20051;-62
2022/05/14 06:52:14;;;;;;;19.27;5.68;;;;;;;;;;5027428;28;20057;-64
2022/05/14 06:54:42;;;;;;;11.05;3.80;;;;;;;;;;5021471;28;20049;-63
2022/05/14 06:57:09;;;;;;;17.73;4.80;;;;;;;;;;5038838;28;20053;-63
2022/05/14 06:59:36;;;;;;;21.20;5.25;;;;;;;;;;5030271;28;20057;-64
2022/05/14 07:02:03;;;;;;;19.83;5.40;;;;;;;;;;5026867;28;20044;-64
2022/05/14 07:07:27;;;;;;;14.65;4.88;;;;;;;;;;4967747;28;20452;-64
2022/05/14 07:09:55;;;;;;;18.63;5.20;;;;;;;;;;5005248;28;20053;-63
2022/05/14 07:12:22;;;;;;;27.05;6.07;;;;;;;;;;5028575;28;20048;-65
2022/05/14 07:14:48;;;;;;;17.70;5.55;;;;;;;;;;5021965;28;20052;-63
2022/05/14 07:17:16;;;;;;;18.95;5.50;;;;;;;;;;5029109;28;20049;-63
2022/05/14 07:19:44;;;;;;;21.45;5.30;;;;;;;;;;5022470;28;20076;-66
2022/05/14 07:22:12;;;;;;;14.70;5.20;;;;;;;;;;5028756;28;20113;-63
2022/05/14 07:24:39;;;;;;;;;;;;;;;;;;5025585;28;20061;-64
2022/05/14 07:27:10;;;;;;;15.07;4.53;;;;;;;;;;5029100;28;19924;-65
2022/05/14 07:29:37;;;;;;;8.45;2.58;;;;;;;;;;5023080;28;20057;-64
2022/05/14 07:32:04;;;;;;;8.50;2.20;;;;;;;;;;5019902;28;20080;-65
2022/05/14 07:34:31;;;;;;;22.33;6.28;;;;;;;;;;5022470;28;20074;-64
2022/05/14 07:36:58;;;;;;;15.73;4.70;;;;;;;;;;5029017;28;20061;-66
2022/05/14 07:39:28;;;;;;;18.27;5.28;;;;;;;;;;5024157;28;20052;-66
2022/05/14 07:41:56;;;;;;;16.05;4.63;;;;;;;;;;5046565;28;20053;-64
2022/05/14 07:44:26;;;;;;;19.88;5.22;;;;;;;;;;5057101;28;20847;-67
2022/05/14 07:46:53;;;;;;;13.57;4.53;;;;;;;;;;5029519;28;20056;-64
2022/05/14 07:49:22;;;;;;;13.73;4.20;;;;;;;;;;5022248;28;20057;-66
2022/05/14 07:51:48;;;;;;;18.60;4.60;;;;;;;;;;5027436;28;20206;-64
2022/05/14 07:54:16;;;;;;;11.63;4.07;;;;;;;;;;5046381;28;20053;-66
2022/05/14 07:56:43;;;;;;;18.13;4.97;;;;;;;;;;5023327;28;20071;-66
2022/05/14 07:59:11;;;;;;;16.70;3.20;;;;;;;;;;5029370;28;20100;-65
2022/05/14 08:01:38;;;;;;;;;;;;;;;;;;5022175;28;20060;-63
2022/05/14 08:04:06;;;;;;;20.52;5.25;;;;;;;;;;5029795;28;19925;-65
2022/05/14 08:06:33;;;;;;;9.60;3.05;;;;;;;;;;5021169;28;20063;-63
2022/05/14 08:09:02;;;;;;;14.60;4.50;;;;;;;;;;5028050;28;20060;-64
2022/05/14 08:11:28;;;;;;;18.48;6.15;;;;;;;;;;5037210;28;20074;-64
2022/05/14 08:13:55;;;;;;;36.33;12.57;;;;;;;;;;5029481;28;20061;-65
2022/05/14 08:16:22;;;;;;;24.88;6.68;;;;;;;;;;5022489;28;20040;-64
2022/05/14 08:18:50;;;;;;;15.85;4.40;;;;;;;;;;5027905;28;20089;-66
2022/05/14 08:26:49;;;;;;;9.50;2.70;;;;;;;;;;5037013;28;20102;-67
2022/05/14 08:29:16;;;;;;;11.40;3.15;;;;;;;;;;5026725;28;20053;-68
2022/05/14 08:31:43;;;;;;;14.45;3.83;;;;;;;;;;5022461;28;20056;-64
2022/05/14 08:34:09;;;;;;;14.77;4.47;;;;;;;;;;5044414;28;20052;-66
2022/05/14 08:36:38;;;;;;;15.15;4.10;;;;;;;;;;5020968;28;20088;-67
2022/05/14 08:39:05;;;;;;;15.57;4.25;;;;;;;;;;5027590;28;20056;-64
2022/05/14 08:41:35;;;;;;;17.05;3.72;;;;;;;;;;5020149;28;20044;-64
2022/05/14 08:44:05;;;;;;;15.05;3.22;;;;;;;;;;5025367;28;20110;-68
2022/05/14 08:46:33;;;;;;;12.05;3.35;;;;;;;;;;5020536;28;20066;-64
2022/05/14 08:49:03;;;;;;;15.77;3.42;;;;;;;;;;5042688;28;20064;-63
2022/05/14 08:51:32;;;;;;;21.13;3.53;;;;;;;;;;5043185;28;20044;-61
2022/05/14 08:54:01;;;;;;;13.93;2.95;;;;;;;;;;5022040;28;20131;-61
2022/05/14 08:56:30;;;;;;;17.85;2.95;;;;;;;;;;5026829;28;20076;-61
2022/05/14 08:59:13;;;;;;;16.92;3.40;;;;;;;;;;5020200;28;20063;-62
2022/05/14 09:01:41;;;;;;;18.27;2.75;;;;;;;;;;5028557;28;20135;-63
2022/05/14 09:04:09;;;;;;;12.70;3.10;;;;;;;;;;5020121;28;20071;-65
2022/05/14 09:06:36;;;;;;;20.17;2.95;;;;;;;;;;5028678;28;20059;-64
2022/05/14 09:09:05;;;;;;;12.48;2.50;;;;;;;;;;5020013;28;20049;-62
2022/05/14 09:11:38;;;;;;;17.90;3.03;;;;;;;;;;5026044;28;20060;-63
2022/05/14 09:14:08;;;;;;;11.63;2.85;;;;;;;;;;5021470;28;20049;-62
2022/05/14 09:16:37;;;;;;;13.90;3.75;;;;;;;;;;5031100;28;20061;-64
2022/05/14 09:19:13;;;;;;;14.45;2.80;;;;;;;;;;5023985;28;20112;-63
2022/05/14 09:21:48;;;;;;;18.73;3.13;;;;;;;;;;5030125;28;20142;-62
2022/05/14 09:24:18;;;;;;;13.18;2.63;;;;;;;;;;5024419;28;20049;-62
2022/05/14 09:26:45;;;;;;;15.30;2.72;;;;;;;;;;5046811;28;20055;-61
2022/05/14 09:29:16;;;;;;;19.98;3.35;;;;;;;;;;5039650;28;20094;-61
2022/05/14 09:31:51;;;;;;;12.85;2.85;;;;;;;;;;5031620;28;20068;-61
2022/05/14 09:34:19;;;;;;;9.82;2.25;;;;;;;;;;5027037;28;20060;-64
2022/05/14 09:36:49;;;;;;;14.53;2.37;;;;;;;;;;5031722;28;20094;-64
2022/05/14 09:39:19;;;;;;;15.35;2.92;;;;;;;;;;5025185;28;20052;-62
2022/05/14 09:41:49;;;;;;;14.52;2.58;;;;;;;;;;5031287;28;20072;-63
2022/05/14 09:44:17;;;;;;;13.20;2.50;;;;;;;;;;5024494;28;20060;-62
2022/05/14 09:46:44;;;;;;;18.38;3.85;;;;;;;;;;5031539;28;20048;-63
2022/05/14 09:49:18;;;;;;;16.80;2.90;;;;;;;;;;5007159;28;20053;-63
2022/05/14 09:51:48;;;;;;;15.57;2.67;;;;;;;;;;5042507;28;20130;-62
2022/05/14 09:54:21;;;;;;;15.15;3.13;;;;;;;;;;5004744;28;20049;-61
2022/05/14 09:56:58;;;;;;;13.63;2.60;;;;;;;;;;5010960;28;20045;-64
2022/05/14 09:59:35;;;;;;;10.30;2.15;;;;;;;;;;5005654;28;20063;-61
2022/05/14 10:02:08;;;;;;;17.52;2.80;;;;;;;;;;5009787;28;20050;-65
2022/05/14 10:04:45;;;;;;;18.05;2.35;;;;;;;;;;5022279;28;20192;-62
2022/05/14 10:07:14;;;;;;;16.00;2.70;;;;;;;;;;5010511;28;20053;-63
2022/05/14 10:09:41;;;;;;;;;;;;;;;;;;5006633;28;20303;-64
2022/05/14 10:12:15;;;;;;;12.82;2.70;;;;;;;;;;5008977;28;20015;-64
2022/05/14 10:14:51;;;;;;;13.90;2.85;;;;;;;;;;5012348;28;20107;-64
2022/05/14 10:17:28;;;;;;;11.77;2.10;;;;;;;;;;5008627;28;20053;-65
2022/05/14 10:20:13;;;;;;;11.60;2.40;;;;;;;;;;5008908;28;20053;-64
2022/05/14 10:28:25;;;;;;;12.85;2.22;;;;;;;;;;5009674;28;20179;-67
2022/05/14 10:30:55;;;;;;;14.02;2.30;;;;;;;;;;5006154;28;20164;-67
2022/05/14 10:33:24;;;;;;;8.25;2.28;;;;;;;;;;5027355;28;20057;-67
2022/05/14 10:35:54;;;;;;;13.23;2.25;;;;;;;;;;5021222;28;20053;-67
2022/05/14 10:38:25;;;;;;;16.83;2.90;;;;;;;;;;5026443;28;20081;-68
2022/05/14 10:40:55;;;;;;;10.55;2.40;;;;;;;;;;5007953;28;20053;-68
2022/05/14 10:43:30;;;;;;;12.70;2.25;;;;;;;;;;5008859;28;20053;-68
2022/05/14 10:45:58;;;;;;;12.02;2.17;;;;;;;;;;5027431;28;20077;-67
2022/05/14 10:48:31;;;;;;;6.35;1.75;;;;;;;;;;5016075;28;20076;-67
2022/05/14 10:50:57;;;;;;;7.30;2.15;;;;;;;;;;5046241;28;20053;-63
2022/05/14 10:53:24;;;;;;;13.45;2.50;;;;;;;;;;5025112;28;20075;-64
2022/05/14 10:55:55;;;;;;;12.50;2.10;;;;;;;;;;5028020;28;20110;-67
2022/05/14 10:58:35;;;;;;;9.25;2.13;;;;;;;;;;5021964;28;20098;-65
2022/05/14 11:01:04;;;;;;;11.13;2.35;;;;;;;;;;5029665;28;20053;-64
2022/05/14 11:03:36;;;;;;;12.43;3.00;;;;;;;;;;5025095;28;20156;-64
2022/05/14 11:06:23;;;;;;;22.60;2.60;;;;;;;;;;5027681;28;20049;-64
2022/05/14 11:08:51;;;;;;;11.32;1.90;;;;;;;;;;5016436;28;20060;-64
2022/05/14 11:11:20;;;;;;;10.18;2.13;;;;;;;;;;5030318;28;20049;-64
2022/05/14 11:14:01;;;;;;;12.50;2.65;;;;;;;;;;5040629;28;20057;-65
2022/05/14 11:16:43;;;;;;;19.60;4.90;;;;;;;;;;5029559;28;20096;-66
2022/05/14 11:19:12;;;;;;;16.20;3.67;;;;;;;;;;5038715;28;20056;-64
2022/05/14 11:21:40;;;;;;;19.75;3.30;;;;;;;;;;5030185;28;20056;-66
2022/05/14 11:26:44;;;;;;;9.88;2.33;;;;;;;;;;5023465;28;19924;-64
2022/05/14 11:29:12;;;;;;;10.07;2.13;;;;;;;;;;5003126;28;20062;-63
2022/05/14 11:31:40;;;;;;;7.93;1.60;;;;;;;;;;5013179;28;20058;-64
2022/05/14 11:34:17;;;;;;;23.42;3.33;;;;;;;;;;5008208;28;20304;-62
2022/05/14 11:36:46;;;;;;;17.50;2.65;;;;;;;;;;5011612;28;20141;-63
2022/05/14 11:39:28;;;;;;;10.32;2.63;;;;;;;;;;5020419;28;20053;-64
2022/05/14 11:42:07;;;;;;;10.45;2.38;;;;;;;;;;5013732;28;20125;-65
2022/05/14 11:44:36;;;;;;;4.80;1.70;;;;;;;;;;5009393;28;20053;-65
2022/05/14 11:47:03;;;;;;;8.75;1.95;;;;;;;;;;5017991;28;20157;-63
2022/05/14 11:49:37;;;;;;;17.10;3.00;;;;;;;;;;5007632;28;20077;-65
2022/05/14 11:52:08;;;;;;;11.00;2.50;;;;;;;;;;5000864;28;20050;-65
2022/05/14 11:54:37;;;;;;;9.43;2.30;;;;;;;;;;5007503;28;20058;-65
2022/05/14 11:57:07;;;;;;;6.93;1.98;;;;;;;;;;5029215;28;20045;-63
2022/05/14 11:59:40;;;;;;;10.48;1.98;;;;;;;;;;5009554;28;20057;-62
2022/05/14 12:02:08;;;;;;;7.82;2.20;;;;;;;;;;5017236;28;20149;-63
2022/05/14 12:04:39;;;;;;;17.83;3.65;;;;;;;;;;5009014;28;20054;-63
2022/05/14 12:07:14;;;;;;;10.38;2.60;;;;;;;;;;5015286;28;20045;-61
2022/05/14 12:09:50;;;;;;;6.00;1.67;;;;;;;;;;5020454;28;20133;-62
2022/05/14 12:12:20;;;;;;;12.07;2.58;;;;;;;;;;5010606;28;20061;-62
2022/05/14 12:14:47;;;;;;;13.52;3.00;;;;;;;;;;5014352;28;20057;-64
2022/05/14 12:17:15;;;;;;;8.15;2.00;;;;;;;;;;5011046;28;20058;-65
2022/05/14 12:19:45;;;;;;;6.53;1.70;;;;;;;;;;5013339;28;20141;-66
2022/05/14 12:22:18;;;;;;;6.90;1.67;;;;;;;;;;5012698;28;20068;-64
2022/05/14 12:24:53;;;;;;;7.38;2.17;;;;;;;;;;5035824;28;20057;-64
2022/05/14 12:27:20;;;;;;;9.20;2.20;;;;;;;;;;5025925;28;20079;-64
2022/05/14 12:29:52;;;;;;;4.75;1.73;;;;;;;;;;5029333;28;20083;-63
2022/05/14 12:35:01;;;;;;;13.40;3.00;;;;;;;;;;4994921;28;20057;-62
2022/05/14 12:37:28;;;;;;;8.10;1.80;;;;;;;;;;5021669;28;20049;-65
2022/05/14 12:39:58;;;;;;;8.52;2.30;;;;;;;;;;5025708;28;20057;-62
2022/05/14 12:42:30;;;;;;;11.00;2.45;;;;;;;;;;5023249;28;20057;-66
2022/05/14 12:44:58;;;;;;;16.00;5.15;;;;;;;;;;5027747;28;20126;-68
2022/05/14 12:47:26;;;;;;;10.38;2.83;;;;;;;;;;5021509;28;20049;-67
2022/05/14 12:49:53;;;;;;;13.52;2.97;;;;;;;;;;5026834;28;20056;-67
2022/05/14 12:52:22;;;;;;;10.07;2.15;;;;;;;;;;5022344;28;20063;-64
2022/05/14 12:54:51;;;;;;;13.70;2.88;;;;;;;;;;5027112;28;20056;-65
2022/05/14 12:57:18;;;;;;;21.15;3.60;;;;;;;;;;5021599;28;20056;-67
2022/05/14 12:59:45;;;;;;;14.60;3.00;;;;;;;;;;5027834;28;20060;-70
2022/05/14 13:02:13;;;;;;;16.05;3.70;;;;;;;;;;5020527;28;20045;-69
2022/05/14 13:04:51;;;;;;;16.35;3.47;;;;;;;;;;5022189;28;20084;-67
2022/05/14 13:07:29;;;;;;;21.43;3.17;;;;;;;;;;5025464;28;20049;-69
2022/05/14 13:09:56;;;;;;;;;;;;;;;;;;5025877;28;20295;-72
2022/05/14 13:12:24;;;;;;;16.30;2.90;;;;;;;;;;5026910;28;19929;-69
2022/05/14 13:14:53;;;;;;;16.45;2.70;;;;;;;;;;5010702;28;20045;-73
2022/05/14 13:17:20;;;;;;;13.82;2.95;;;;;;;;;;5010215;28;20049;-71
2022/05/14 13:19:48;;;;;;;19.40;2.67;;;;;;;;;;5010474;28;20045;-69
2022/05/14 13:22:15;;;;;;;;;;;;;;;;;;5027413;28;20190;-62
2022/05/14 13:24:53;;;;;;;32.13;3.75;;;;;;;;;;5026636;28;19978;-63
2022/05/14 13:27:19;;;;;;;;;;;;;;;;;;5010449;28;20053;-72
2022/05/14 13:29:46;;;;;;;11.32;2.50;;;;;;;;;;5026803;28;19921;-65
2022/05/14 13:32:14;;;;;;;15.25;3.08;;;;;;;;;;5010790;28;20111;-65
2022/05/14 13:37:27;;;;;;;41.97;4.80;;;;;;;;;;5043046;28;19921;-63
2022/05/14 13:39:55;;;;;;;15.35;2.65;;;;;;;;;;5009869;28;20046;-69
2022/05/14 13:42:24;;;;;;;33.03;3.83;;;;;;;;;;5026052;28;20100;-64
2022/05/14 13:44:53;;;;;;;33.58;3.50;;;;;;;;;;5009890;28;20054;-67
2022/05/14 13:47:22;;;;;;;49.35;4.03;;;;;;;;;;5010257;28;20057;-66
2022/05/14 13:49:52;;;;;;;15.57;2.70;;;;;;;;;;5025891;28;20084;-66
2022/05/14 13:52:24;;;;;;;40.38;3.95;;;;;;;;;;5010118;28;20045;-65
2022/05/14 13:55:00;;;;;;;26.60;2.85;;;;;;;;;;5001973;28;20065;-70
2022/05/14 13:57:29;;;;;;;12.93;2.58;;;;;;;;;;5010862;28;20057;-74
2022/05/14 14:00:02;;;;;;;19.75;3.03;;;;;;;;;;5010062;28;20045;-73
2022/05/14 14:02:30;;;;;;;16.25;2.72;;;;;;;;;;5012351;28;20104;-70
2022/05/14 14:04:58;;;;;;;11.65;2.47;;;;;;;;;;5029907;28;20065;-71
2022/05/14 14:07:26;;;;;;;13.38;2.33;;;;;;;;;;5013279;28;20053;-71
2022/05/14 14:09:53;;;;;;;14.70;3.13;;;;;;;;;;5013371;28;20068;-72
2022/05/14 14:12:23;;;;;;;17.38;2.65;;;;;;;;;;5013425;28;20164;-74
2022/05/14 14:14:53;;;;;;;12.20;2.75;;;;;;;;;;5013469;28;20046;-71
2022/05/14 14:17:21;;;;;;;14.88;2.75;;;;;;;;;;5029501;28;20053;-72
2022/05/14 14:19:47;;;;;;;17.30;2.85;;;;;;;;;;5012257;28;20061;-72
2022/05/14 14:22:14;;;;;;;12.32;3.15;;;;;;;;;;5013585;28;20057;-74
2022/05/14 14:24:48;;;;;;;13.93;3.13;;;;;;;;;;5010841;28;20061;-74
2022/05/14 14:27:17;;;;;;;16.10;3.22;;;;;;;;;;4992313;28;20054;-72
2022/05/14 14:29:43;;;;;;;16.00;2.77;;;;;;;;;;5009579;28;20046;-73
2022/05/14 14:32:10;;;;;;;14.20;2.95;;;;;;;;;;5010646;28;20342;-74
2022/05/14 14:34:38;;;;;;;54.22;27.15;;;;;;;;;;5011180;28;20056;-71
2022/05/14 14:37:05;;;;;;;15.80;3.47;;;;;;;;;;4993917;28;20060;-64
2022/05/14 14:39:32;;;;;;;24.23;8.07;;;;;;;;;;5009253;28;20054;-66
2022/05/14 14:41:58;;;;;;;18.23;5.60;;;;;;;;;;5012004;28;20052;-65
2022/05/14 14:44:25;;;;;;;31.85;14.32;;;;;;;;;;5012093;28;21615;-65
2022/05/14 14:46:52;;;;;;;32.53;12.27;;;;;;;;;;4996277;28;20054;-67
2022/05/14 14:49:33;;;;;;;21.45;6.32;;;;;;;;;;5013059;28;20058;-66
2022/05/14 14:52:01;;;;;;;18.33;3.30;;;;;;;;;;5029438;28;20061;-65
2022/05/14 14:54:27;;;;;;;17.00;4.18;;;;;;;;;;5012477;28;20050;-65
2022/05/14 14:56:54;;;;;;;14.40;3.40;;;;;;;;;;5011738;28;20057;-65
2022/05/14 14:59:21;;;;;;;13.43;4.70;;;;;;;;;;5010947;28;20069;-65
2022/05/14 15:01:50;;;;;;;12.95;2.97;;;;;;;;;;5010339;23;20054;-70
2022/05/14 15:08:23;;;;;;;9.82;2.38;;;;;;;;;;5009934;28;20060;-71
2022/05/14 15:10:51;;;;;;;9.10;2.58;;;;;;;;;;5012435;23;20148;-70
2022/05/14 15:13:18;;;;;;;;;;;;;;;;;;4990925;28;20049;-71
2022/05/14 15:15:44;;;;;;;17.67;3.17;;;;;;;;;;4966149;28;19929;-71
2022/05/14 15:18:12;;;;;;;16.42;2.92;;;;;;;;;;5005682;28;20045;-71
2022/05/14 15:20:39;;;;;;;12.90;2.83;;;;;;;;;;5014946;28;20049;-71